sensor_id;sensor_type;location;lat;lon;timestamp;temperature;humidity
77523;SHT31;66637;-29.628;-49.938;2023-03-18T00:00:16;24.88;74.09
77523;SHT31;66637;-29.628;-49.938;2023-03-18T00:02:48;24.90;74.10
77523;SHT31;66637;-29.628;-49.938;2023-03-18T00:05:20;24.86;74.26
77523;SHT31;66637;-29.628;-49.938;2023-03-18T00:07:52;24.81;74.40
77523;SHT31;66637;-29.628;-49.938;2023-03-18T00:10:23;24.80;74.23
77523;SHT31;66637;-29.628;-49.938;2023-03-18T00:12:54;24.80;74.40
77523;SHT31;66637;-29.628;-49.938;2023-03-18T00:15:24;24.77;74.47
77523;SHT31;66637;-29.628;-49.938;2023-03-18T00:17:56;24.74;74.66
77523;SHT31;66637;-29.628;-49.938;2023-03-18T00:20:28;24.73;74.80
77523;SHT31;66637;-29.628;-49.938;2023-03-18T00:23:07;24.73;74.85
77523;SHT31;66637;-29.628;-49.938;2023-03-18T00:25:39;24.73;74.84
77523;SHT31;66637;-29.628;-49.938;2023-03-18T00:28:11;24.69;74.82
77523;SHT31;66637;-29.628;-49.938;2023-03-18T00:30:45;24.67;74.85
77523;SHT31;66637;-29.628;-49.938;2023-03-18T00:33:19;24.66;74.91
77523;SHT31;66637;-29.628;-49.938;2023-03-18T00:35:52;24.67;74.94
77523;SHT31;66637;-29.628;-49.938;2023-03-18T00:38:24;24.64;75.10
77523;SHT31;66637;-29.628;-49.938;2023-03-18T00:40:55;24.64;74.99
77523;SHT31;66637;-29.628;-49.938;2023-03-18T00:43:47;24.64;75.32
77523;SHT31;66637;-29.628;-49.938;2023-03-18T00:46:27;24.61;74.87
77523;SHT31;66637;-29.628;-49.938;2023-03-18T00:49:02;24.61;74.98
77523;SHT31;66637;-29.628;-49.938;2023-03-18T00:51:36;24.55;75.04
77523;SHT31;66637;-29.628;-49.938;2023-03-18T00:54:09;24.57;75.21
77523;SHT31;66637;-29.628;-49.938;2023-03-18T00:56:41;24.55;75.28
77523;SHT31;66637;-29.628;-49.938;2023-03-18T00:59:11;24.53;75.40
77523;SHT31;66637;-29.628;-49.938;2023-03-18T01:01:43;24.55;75.31
77523;SHT31;66637;-29.628;-49.938;2023-03-18T01:04:16;24.50;75.51
77523;SHT31;66637;-29.628;-49.938;2023-03-18T01:06:50;24.50;75.83
77523;SHT31;66637;-29.628;-49.938;2023-03-18T01:09:41;24.47;75.66
77523;SHT31;66637;-29.628;-49.938;2023-03-18T01:12:12;24.46;75.71
77523;SHT31;66637;-29.628;-49.938;2023-03-18T01:14:45;24.44;75.91
77523;SHT31;66637;-29.628;-49.938;2023-03-18T01:17:17;24.39;76.02
77523;SHT31;66637;-29.628;-49.938;2023-03-18T01:19:53;24.39;75.87
77523;SHT31;66637;-29.628;-49.938;2023-03-18T01:22:26;24.37;76.04
77523;SHT31;66637;-29.628;-49.938;2023-03-18T01:25:04;24.36;76.10
77523;SHT31;66637;-29.628;-49.938;2023-03-18T01:27:38;24.35;76.22
77523;SHT31;66637;-29.628;-49.938;2023-03-18T01:30:10;24.29;76.34
77523;SHT31;66637;-29.628;-49.938;2023-03-18T01:32:41;24.32;76.13
77523;SHT31;66637;-29.628;-49.938;2023-03-18T01:35:13;24.29;76.28
77523;SHT31;66637;-29.628;-49.938;2023-03-18T01:37:47;24.28;76.16
77523;SHT31;66637;-29.628;-49.938;2023-03-18T01:40:20;24.29;76.19
77523;SHT31;66637;-29.628;-49.938;2023-03-18T01:43:21;24.32;76.08
77523;SHT31;66637;-29.628;-49.938;2023-03-18T01:45:52;24.30;75.97
77523;SHT31;66637;-29.628;-49.938;2023-03-18T01:48:26;24.29;75.95
77523;SHT31;66637;-29.628;-49.938;2023-03-18T01:51:06;24.25;76.21
77523;SHT31;66637;-29.628;-49.938;2023-03-18T01:53:42;24.23;76.00
77523;SHT31;66637;-29.628;-49.938;2023-03-18T01:56:14;24.23;76.07
77523;SHT31;66637;-29.628;-49.938;2023-03-18T01:58:48;24.25;76.09
77523;SHT31;66637;-29.628;-49.938;2023-03-18T02:01:30;24.22;76.38
77523;SHT31;66637;-29.628;-49.938;2023-03-18T02:04:06;24.20;76.33
77523;SHT31;66637;-29.628;-49.938;2023-03-18T02:06:41;24.20;76.31
77523;SHT31;66637;-29.628;-49.938;2023-03-18T02:09:13;24.18;76.34
77523;SHT31;66637;-29.628;-49.938;2023-03-18T02:11:46;24.19;76.58
77523;SHT31;66637;-29.628;-49.938;2023-03-18T02:14:24;24.18;76.93
77523;SHT31;66637;-29.628;-49.938;2023-03-18T02:17:06;24.18;76.76
77523;SHT31;66637;-29.628;-49.938;2023-03-18T02:22:39;24.16;77.22
77523;SHT31;66637;-29.628;-49.938;2023-03-18T02:28:10;24.13;77.43
77523;SHT31;66637;-29.628;-49.938;2023-03-18T02:30:46;24.12;77.61
77523;SHT31;66637;-29.628;-49.938;2023-03-18T02:33:21;24.10;77.74
77523;SHT31;66637;-29.628;-49.938;2023-03-18T02:36:01;24.05;77.85
77523;SHT31;66637;-29.628;-49.938;2023-03-18T02:38:41;24.05;78.02
77523;SHT31;66637;-29.628;-49.938;2023-03-18T02:41:24;24.04;78.04
77523;SHT31;66637;-29.628;-49.938;2023-03-18T02:43:56;24.04;78.01
77523;SHT31;66637;-29.628;-49.938;2023-03-18T02:47:12;24.08;78.02
77523;SHT31;66637;-29.628;-49.938;2023-03-18T02:49:44;24.05;78.02
77523;SHT31;66637;-29.628;-49.938;2023-03-18T02:52:18;24.06;78.08
77523;SHT31;66637;-29.628;-49.938;2023-03-18T02:54:49;24.05;78.27
77523;SHT31;66637;-29.628;-49.938;2023-03-18T02:57:50;24.08;77.92
77523;SHT31;66637;-29.628;-49.938;2023-03-18T03:00:20;24.05;78.41
77523;SHT31;66637;-29.628;-49.938;2023-03-18T03:02:52;24.02;78.26
77523;SHT31;66637;-29.628;-49.938;2023-03-18T03:05:23;23.98;78.52
77523;SHT31;66637;-29.628;-49.938;2023-03-18T03:07:53;23.94;78.73
77523;SHT31;66637;-29.628;-49.938;2023-03-18T03:10:25;23.92;78.85
77523;SHT31;66637;-29.628;-49.938;2023-03-18T03:12:57;23.94;78.83
77523;SHT31;66637;-29.628;-49.938;2023-03-18T03:15:29;23.90;78.99
77523;SHT31;66637;-29.628;-49.938;2023-03-18T03:18:02;23.88;79.18
77523;SHT31;66637;-29.628;-49.938;2023-03-18T03:20:34;23.88;79.26
77523;SHT31;66637;-29.628;-49.938;2023-03-18T03:23:09;23.86;79.27
77523;SHT31;66637;-29.628;-49.938;2023-03-18T03:25:42;23.82;79.43
77523;SHT31;66637;-29.628;-49.938;2023-03-18T03:28:16;23.86;79.47
77523;SHT31;66637;-29.628;-49.938;2023-03-18T03:30:48;23.85;79.38
77523;SHT31;66637;-29.628;-49.938;2023-03-18T03:33:19;23.82;79.33
77523;SHT31;66637;-29.628;-49.938;2023-03-18T03:35:50;23.84;79.53
77523;SHT31;66637;-29.628;-49.938;2023-03-18T03:38:22;23.82;79.56
77523;SHT31;66637;-29.628;-49.938;2023-03-18T03:40:54;23.82;79.90
77523;SHT31;66637;-29.628;-49.938;2023-03-18T03:43:27;23.81;80.00
77523;SHT31;66637;-29.628;-49.938;2023-03-18T03:45:58;23.81;80.13
77523;SHT31;66637;-29.628;-49.938;2023-03-18T03:48:29;23.81;80.22
77523;SHT31;66637;-29.628;-49.938;2023-03-18T03:51:02;23.78;80.11
77523;SHT31;66637;-29.628;-49.938;2023-03-18T03:53:33;23.78;80.20
77523;SHT31;66637;-29.628;-49.938;2023-03-18T03:56:06;23.78;80.41
77523;SHT31;66637;-29.628;-49.938;2023-03-18T03:58:41;23.76;80.38
77523;SHT31;66637;-29.628;-49.938;2023-03-18T04:01:13;23.76;80.67
77523;SHT31;66637;-29.628;-49.938;2023-03-18T04:03:46;23.74;80.52
77523;SHT31;66637;-29.628;-49.938;2023-03-18T04:06:17;23.74;80.56
77523;SHT31;66637;-29.628;-49.938;2023-03-18T04:08:57;23.74;80.43
77523;SHT31;66637;-29.628;-49.938;2023-03-18T04:11:29;23.71;80.45
77523;SHT31;66637;-29.628;-49.938;2023-03-18T04:13:59;23.74;80.54
77523;SHT31;66637;-29.628;-49.938;2023-03-18T04:16:30;23.69;80.69
77523;SHT31;66637;-29.628;-49.938;2023-03-18T04:19:01;23.69;80.72
77523;SHT31;66637;-29.628;-49.938;2023-03-18T04:21:32;23.65;80.89
77523;SHT31;66637;-29.628;-49.938;2023-03-18T04:24:05;23.64;81.00
77523;SHT31;66637;-29.628;-49.938;2023-03-18T04:26:37;23.65;80.93
77523;SHT31;66637;-29.628;-49.938;2023-03-18T04:29:08;23.62;80.81
77523;SHT31;66637;-29.628;-49.938;2023-03-18T04:31:40;23.62;80.80
77523;SHT31;66637;-29.628;-49.938;2023-03-18T04:34:11;23.64;80.85
77523;SHT31;66637;-29.628;-49.938;2023-03-18T04:36:44;23.61;80.63
77523;SHT31;66637;-29.628;-49.938;2023-03-18T04:39:16;23.59;80.53
77523;SHT31;66637;-29.628;-49.938;2023-03-18T04:41:47;23.54;80.39
77523;SHT31;66637;-29.628;-49.938;2023-03-18T04:44:19;23.57;80.13
77523;SHT31;66637;-29.628;-49.938;2023-03-18T04:46:52;23.53;80.00
77523;SHT31;66637;-29.628;-49.938;2023-03-18T04:49:24;23.51;79.58
77523;SHT31;66637;-29.628;-49.938;2023-03-18T04:51:56;23.55;79.26
77523;SHT31;66637;-29.628;-49.938;2023-03-18T04:54:31;23.54;79.03
77523;SHT31;66637;-29.628;-49.938;2023-03-18T04:57:05;23.50;78.96
77523;SHT31;66637;-29.628;-49.938;2023-03-18T04:59:43;23.51;79.16
77523;SHT31;66637;-29.628;-49.938;2023-03-18T05:02:15;23.50;79.03
77523;SHT31;66637;-29.628;-49.938;2023-03-18T05:04:46;23.44;79.06
77523;SHT31;66637;-29.628;-49.938;2023-03-18T05:07:18;23.44;78.58
77523;SHT31;66637;-29.628;-49.938;2023-03-18T05:09:59;23.43;78.29
77523;SHT31;66637;-29.628;-49.938;2023-03-18T05:12:30;23.35;78.29
77523;SHT31;66637;-29.628;-49.938;2023-03-18T05:15:01;23.38;78.08
77523;SHT31;66637;-29.628;-49.938;2023-03-18T05:17:36;23.38;77.97
77523;SHT31;66637;-29.628;-49.938;2023-03-18T05:20:10;23.35;77.94
77523;SHT31;66637;-29.628;-49.938;2023-03-18T05:22:44;23.33;77.94
77523;SHT31;66637;-29.628;-49.938;2023-03-18T05:25:28;23.34;77.85
77523;SHT31;66637;-29.628;-49.938;2023-03-18T05:27:58;23.31;77.83
77523;SHT31;66637;-29.628;-49.938;2023-03-18T05:30:41;23.31;77.72
77523;SHT31;66637;-29.628;-49.938;2023-03-18T05:33:15;23.33;77.65
77523;SHT31;66637;-29.628;-49.938;2023-03-18T05:35:54;23.30;77.69
77523;SHT31;66637;-29.628;-49.938;2023-03-18T05:38:30;23.31;77.71
77523;SHT31;66637;-29.628;-49.938;2023-03-18T05:41:02;23.30;77.61
77523;SHT31;66637;-29.628;-49.938;2023-03-18T05:43:38;23.25;77.62
77523;SHT31;66637;-29.628;-49.938;2023-03-18T05:46:08;23.28;77.66
77523;SHT31;66637;-29.628;-49.938;2023-03-18T05:48:54;23.23;77.77
77523;SHT31;66637;-29.628;-49.938;2023-03-18T05:51:30;23.15;77.96
77523;SHT31;66637;-29.628;-49.938;2023-03-18T05:54:02;23.13;78.19
77523;SHT31;66637;-29.628;-49.938;2023-03-18T05:56:40;23.15;77.91
77523;SHT31;66637;-29.628;-49.938;2023-03-18T05:59:13;23.15;78.01
77523;SHT31;66637;-29.628;-49.938;2023-03-18T06:01:53;23.15;77.99
77523;SHT31;66637;-29.628;-49.938;2023-03-18T06:04:25;23.14;77.98
77523;SHT31;66637;-29.628;-49.938;2023-03-18T06:06:57;23.08;78.20
77523;SHT31;66637;-29.628;-49.938;2023-03-18T06:09:31;23.06;78.57
77523;SHT31;66637;-29.628;-49.938;2023-03-18T06:12:03;23.02;78.75
77523;SHT31;66637;-29.628;-49.938;2023-03-18T06:14:35;23.02;79.02
77523;SHT31;66637;-29.628;-49.938;2023-03-18T06:17:07;23.03;78.96
77523;SHT31;66637;-29.628;-49.938;2023-03-18T06:19:40;23.02;79.07
77523;SHT31;66637;-29.628;-49.938;2023-03-18T06:22:13;23.00;79.30
77523;SHT31;66637;-29.628;-49.938;2023-03-18T06:24:45;23.03;79.30
77523;SHT31;66637;-29.628;-49.938;2023-03-18T06:27:18;23.06;79.56
77523;SHT31;66637;-29.628;-49.938;2023-03-18T06:29:54;23.00;79.94
77523;SHT31;66637;-29.628;-49.938;2023-03-18T06:32:25;23.02;80.23
77523;SHT31;66637;-29.628;-49.938;2023-03-18T06:34:57;22.99;80.35
77523;SHT31;66637;-29.628;-49.938;2023-03-18T06:37:29;23.00;80.38
77523;SHT31;66637;-29.628;-49.938;2023-03-18T06:40:02;23.03;80.51
77523;SHT31;66637;-29.628;-49.938;2023-03-18T06:42:33;23.06;80.67
77523;SHT31;66637;-29.628;-49.938;2023-03-18T06:45:10;23.02;80.50
77523;SHT31;66637;-29.628;-49.938;2023-03-18T06:47:56;22.99;80.72
77523;SHT31;66637;-29.628;-49.938;2023-03-18T06:50:33;22.99;80.68
77523;SHT31;66637;-29.628;-49.938;2023-03-18T06:53:06;22.97;80.79
77523;SHT31;66637;-29.628;-49.938;2023-03-18T06:55:39;22.94;80.87
77523;SHT31;66637;-29.628;-49.938;2023-03-18T06:58:10;22.94;80.93
77523;SHT31;66637;-29.628;-49.938;2023-03-18T07:01:00;22.93;81.29
77523;SHT31;66637;-29.628;-49.938;2023-03-18T07:03:37;22.92;81.10
77523;SHT31;66637;-29.628;-49.938;2023-03-18T07:06:09;22.90;81.15
77523;SHT31;66637;-29.628;-49.938;2023-03-18T07:08:42;22.92;80.97
77523;SHT31;66637;-29.628;-49.938;2023-03-18T07:11:14;22.92;81.11
77523;SHT31;66637;-29.628;-49.938;2023-03-18T07:13:46;22.96;80.82
77523;SHT31;66637;-29.628;-49.938;2023-03-18T07:16:25;22.96;81.25
77523;SHT31;66637;-29.628;-49.938;2023-03-18T07:18:58;22.99;81.22
77523;SHT31;66637;-29.628;-49.938;2023-03-18T07:21:32;22.96;81.07
77523;SHT31;66637;-29.628;-49.938;2023-03-18T07:24:05;22.90;80.89
77523;SHT31;66637;-29.628;-49.938;2023-03-18T07:26:36;22.84;80.99
77523;SHT31;66637;-29.628;-49.938;2023-03-18T07:29:09;22.83;81.03
77523;SHT31;66637;-29.628;-49.938;2023-03-18T07:31:40;22.82;80.83
77523;SHT31;66637;-29.628;-49.938;2023-03-18T07:34:14;22.80;80.93
77523;SHT31;66637;-29.628;-49.938;2023-03-18T07:36:46;22.79;80.94
77523;SHT31;66637;-29.628;-49.938;2023-03-18T07:39:18;22.80;81.09
77523;SHT31;66637;-29.628;-49.938;2023-03-18T07:41:48;22.77;81.22
77523;SHT31;66637;-29.628;-49.938;2023-03-18T07:44:28;22.77;81.22
77523;SHT31;66637;-29.628;-49.938;2023-03-18T07:46:59;22.76;81.04
77523;SHT31;66637;-29.628;-49.938;2023-03-18T07:49:30;22.76;81.07
77523;SHT31;66637;-29.628;-49.938;2023-03-18T07:52:01;22.80;81.19
77523;SHT31;66637;-29.628;-49.938;2023-03-18T07:54:32;22.82;81.12
77523;SHT31;66637;-29.628;-49.938;2023-03-18T07:57:02;22.82;81.25
77523;SHT31;66637;-29.628;-49.938;2023-03-18T07:59:35;22.82;81.03
77523;SHT31;66637;-29.628;-49.938;2023-03-18T08:02:10;22.73;81.07
77523;SHT31;66637;-29.628;-49.938;2023-03-18T08:04:42;22.72;81.10
77523;SHT31;66637;-29.628;-49.938;2023-03-18T08:07:16;22.72;81.07
77523;SHT31;66637;-29.628;-49.938;2023-03-18T08:09:47;22.70;81.03
77523;SHT31;66637;-29.628;-49.938;2023-03-18T08:12:19;22.70;81.19
77523;SHT31;66637;-29.628;-49.938;2023-03-18T08:14:54;22.69;81.39
77523;SHT31;66637;-29.628;-49.938;2023-03-18T08:17:24;22.73;81.60
77523;SHT31;66637;-29.628;-49.938;2023-03-18T08:19:56;22.76;81.50
77523;SHT31;66637;-29.628;-49.938;2023-03-18T08:22:27;22.77;81.66
77523;SHT31;66637;-29.628;-49.938;2023-03-18T08:24:59;22.79;81.49
77523;SHT31;66637;-29.628;-49.938;2023-03-18T08:27:30;22.76;81.68
77523;SHT31;66637;-29.628;-49.938;2023-03-18T08:30:00;22.80;81.73
77523;SHT31;66637;-29.628;-49.938;2023-03-18T08:32:31;22.77;81.92
77523;SHT31;66637;-29.628;-49.938;2023-03-18T08:35:03;22.82;82.12
77523;SHT31;66637;-29.628;-49.938;2023-03-18T08:37:34;22.83;82.23
77523;SHT31;66637;-29.628;-49.938;2023-03-18T08:40:06;22.86;81.65
77523;SHT31;66637;-29.628;-49.938;2023-03-18T08:42:38;22.89;81.68
77523;SHT31;66637;-29.628;-49.938;2023-03-18T08:45:09;22.87;81.79
77523;SHT31;66637;-29.628;-49.938;2023-03-18T08:47:41;22.82;81.80
77523;SHT31;66637;-29.628;-49.938;2023-03-18T08:50:13;22.83;81.86
77523;SHT31;66637;-29.628;-49.938;2023-03-18T08:52:45;22.82;81.66
77523;SHT31;66637;-29.628;-49.938;2023-03-18T08:55:16;22.80;81.72
77523;SHT31;66637;-29.628;-49.938;2023-03-18T08:57:46;22.80;81.83
77523;SHT31;66637;-29.628;-49.938;2023-03-18T09:00:17;22.76;81.84
77523;SHT31;66637;-29.628;-49.938;2023-03-18T09:02:47;22.79;81.88
77523;SHT31;66637;-29.628;-49.938;2023-03-18T09:05:18;22.77;81.97
77523;SHT31;66637;-29.628;-49.938;2023-03-18T09:07:49;22.80;82.13
77523;SHT31;66637;-29.628;-49.938;2023-03-18T09:10:19;22.80;82.31
77523;SHT31;66637;-29.628;-49.938;2023-03-18T09:12:50;22.83;82.31
77523;SHT31;66637;-29.628;-49.938;2023-03-18T09:15:21;22.77;82.32
77523;SHT31;66637;-29.628;-49.938;2023-03-18T09:17:51;22.80;82.27
77523;SHT31;66637;-29.628;-49.938;2023-03-18T09:20:40;22.80;82.30
77523;SHT31;66637;-29.628;-49.938;2023-03-18T09:23:12;22.80;82.35
77523;SHT31;66637;-29.628;-49.938;2023-03-18T09:25:44;22.84;82.31
77523;SHT31;66637;-29.628;-49.938;2023-03-18T09:28:16;22.83;82.32
77523;SHT31;66637;-29.628;-49.938;2023-03-18T09:30:48;22.87;81.97
77523;SHT31;66637;-29.628;-49.938;2023-03-18T09:33:19;22.87;82.08
77523;SHT31;66637;-29.628;-49.938;2023-03-18T09:35:50;22.92;81.70
77523;SHT31;66637;-29.628;-49.938;2023-03-18T09:38:23;22.89;81.81
77523;SHT31;66637;-29.628;-49.938;2023-03-18T09:52:17;22.83;81.00
77523;SHT31;66637;-29.628;-49.938;2023-03-18T09:55:02;22.92;81.05
77523;SHT31;66637;-29.628;-49.938;2023-03-18T09:57:41;23.00;81.00
77523;SHT31;66637;-29.628;-49.938;2023-03-18T10:00:29;23.08;80.79
77523;SHT31;66637;-29.628;-49.938;2023-03-18T10:03:09;23.10;80.33
77523;SHT31;66637;-29.628;-49.938;2023-03-18T10:11:31;23.25;80.50
77523;SHT31;66637;-29.628;-49.938;2023-03-18T10:20:00;23.62;80.34
77523;SHT31;66637;-29.628;-49.938;2023-03-18T10:25:20;23.69;80.23
77523;SHT31;66637;-29.628;-49.938;2023-03-18T10:30:39;23.85;80.31
77523;SHT31;66637;-29.628;-49.938;2023-03-18T10:35:53;23.92;80.05
77523;SHT31;66637;-29.628;-49.938;2023-03-18T10:38:33;23.98;79.68
77523;SHT31;66637;-29.628;-49.938;2023-03-18T10:41:28;24.08;79.85
77523;SHT31;66637;-29.628;-49.938;2023-03-18T10:44:28;27.73;69.56
77523;SHT31;66637;-29.628;-49.938;2023-03-18T10:47:13;28.52;64.90
77523;SHT31;66637;-29.628;-49.938;2023-03-18T10:50:03;29.18;63.25
77523;SHT31;66637;-29.628;-49.938;2023-03-18T10:55:21;29.39;60.37
77523;SHT31;66637;-29.628;-49.938;2023-03-18T10:57:53;29.22;61.27
77523;SHT31;66637;-29.628;-49.938;2023-03-18T11:00:30;29.23;61.63
77523;SHT31;66637;-29.628;-49.938;2023-03-18T11:03:04;28.81;62.17
77523;SHT31;66637;-29.628;-49.938;2023-03-18T11:05:37;28.57;63.32
77523;SHT31;66637;-29.628;-49.938;2023-03-18T11:08:30;28.48;64.36
77523;SHT31;66637;-29.628;-49.938;2023-03-18T11:11:28;28.52;64.73
77523;SHT31;66637;-29.628;-49.938;2023-03-18T11:14:04;28.52;63.65
77523;SHT31;66637;-29.628;-49.938;2023-03-18T11:17:00;28.69;63.17
77523;SHT31;66637;-29.628;-49.938;2023-03-18T11:24:40;28.68;62.97
77523;SHT31;66637;-29.628;-49.938;2023-03-18T11:29:58;28.69;63.59
77523;SHT31;66637;-29.628;-49.938;2023-03-18T11:32:31;28.88;62.13
77523;SHT31;66637;-29.628;-49.938;2023-03-18T11:35:05;28.79;62.90
77523;SHT31;66637;-29.628;-49.938;2023-03-18T11:37:40;28.74;62.56
77523;SHT31;66637;-29.628;-49.938;2023-03-18T11:40:22;28.78;62.80
77523;SHT31;66637;-29.628;-49.938;2023-03-18T11:43:02;28.96;62.12
77523;SHT31;66637;-29.628;-49.938;2023-03-18T11:45:56;29.22;62.48
77523;SHT31;66637;-29.628;-49.938;2023-03-18T11:48:34;29.29;62.26
77523;SHT31;66637;-29.628;-49.938;2023-03-18T11:54:06;29.08;63.86
77523;SHT31;66637;-29.628;-49.938;2023-03-18T11:56:46;29.27;62.02
77523;SHT31;66637;-29.628;-49.938;2023-03-18T12:05:25;29.37;61.54
77523;SHT31;66637;-29.628;-49.938;2023-03-18T12:08:14;29.19;61.43
77523;SHT31;66637;-29.628;-49.938;2023-03-18T12:11:22;29.22;62.41
77523;SHT31;66637;-29.628;-49.938;2023-03-18T12:30:44;30.47;59.50
77523;SHT31;66637;-29.628;-49.938;2023-03-18T12:42:22;30.11;60.01
77523;SHT31;66637;-29.628;-49.938;2023-03-18T12:45:13;29.60;60.69
77523;SHT31;66637;-29.628;-49.938;2023-03-18T12:48:20;29.16;62.69
77523;SHT31;66637;-29.628;-49.938;2023-03-18T12:51:15;29.20;62.34
77523;SHT31;66637;-29.628;-49.938;2023-03-18T12:53:52;29.40;62.18
77523;SHT31;66637;-29.628;-49.938;2023-03-18T12:56:25;29.37;61.82
77523;SHT31;66637;-29.628;-49.938;2023-03-18T12:59:04;29.87;60.72
77523;SHT31;66637;-29.628;-49.938;2023-03-18T13:01:47;29.91;60.94
77523;SHT31;66637;-29.628;-49.938;2023-03-18T13:04:21;29.63;60.56
77523;SHT31;66637;-29.628;-49.938;2023-03-18T13:07:15;29.69;60.70
77523;SHT31;66637;-29.628;-49.938;2023-03-18T13:10:06;29.23;61.84
77523;SHT31;66637;-29.628;-49.938;2023-03-18T13:12:40;29.33;61.20
77523;SHT31;66637;-29.628;-49.938;2023-03-18T13:18:21;29.56;59.93
77523;SHT31;66637;-29.628;-49.938;2023-03-18T13:20:56;29.37;61.53
77523;SHT31;66637;-29.628;-49.938;2023-03-18T13:23:57;29.37;61.98
77523;SHT31;66637;-29.628;-49.938;2023-03-18T13:32:08;29.72;60.71
77523;SHT31;66637;-29.628;-49.938;2023-03-18T13:43:39;29.63;61.16
77523;SHT31;66637;-29.628;-49.938;2023-03-18T13:46:20;29.78;60.67
77523;SHT31;66637;-29.628;-49.938;2023-03-18T13:48:57;30.08;59.16
77523;SHT31;66637;-29.628;-49.938;2023-03-18T13:54:02;29.96;56.86
77523;SHT31;66637;-29.628;-49.938;2023-03-18T14:02:28;30.03;59.22
77523;SHT31;66637;-29.628;-49.938;2023-03-18T14:05:00;29.42;59.37
77523;SHT31;66637;-29.628;-49.938;2023-03-18T14:07:45;29.35;60.75
77523;SHT31;66637;-29.628;-49.938;2023-03-18T14:10:18;29.45;59.82
77523;SHT31;66637;-29.628;-49.938;2023-03-18T14:12:50;29.39;60.61
77523;SHT31;66637;-29.628;-49.938;2023-03-18T14:15:41;29.49;60.78
77523;SHT31;66637;-29.628;-49.938;2023-03-18T14:18:22;29.46;59.98
77523;SHT31;66637;-29.628;-49.938;2023-03-18T14:20:59;29.32;61.30
77523;SHT31;66637;-29.628;-49.938;2023-03-18T14:23:36;29.35;60.38
77523;SHT31;66637;-29.628;-49.938;2023-03-18T14:26:20;29.47;61.30
77523;SHT31;66637;-29.628;-49.938;2023-03-18T14:41:59;30.47;58.54
77523;SHT31;66637;-29.628;-49.938;2023-03-18T14:44:46;30.74;57.71
77523;SHT31;66637;-29.628;-49.938;2023-03-18T14:47:27;30.59;57.14
77523;SHT31;66637;-29.628;-49.938;2023-03-18T14:53:08;30.29;59.64
77523;SHT31;66637;-29.628;-49.938;2023-03-18T14:55:41;29.97;59.32
77523;SHT31;66637;-29.628;-49.938;2023-03-18T14:58:18;30.29;58.13
77523;SHT31;66637;-29.628;-49.938;2023-03-18T15:00:52;30.14;58.79
77523;SHT31;66637;-29.628;-49.938;2023-03-18T15:03:29;30.17;58.43
77523;SHT31;66637;-29.628;-49.938;2023-03-18T15:06:04;30.16;57.93
77523;SHT31;66637;-29.628;-49.938;2023-03-18T15:08:37;30.31;56.66
77523;SHT31;66637;-29.628;-49.938;2023-03-18T15:11:18;30.31;56.29
77523;SHT31;66637;-29.628;-49.938;2023-03-18T15:13:53;30.59;55.03
77523;SHT31;66637;-29.628;-49.938;2023-03-18T15:16:29;30.57;54.18
77523;SHT31;66637;-29.628;-49.938;2023-03-18T15:19:05;30.68;53.58
77523;SHT31;66637;-29.628;-49.938;2023-03-18T15:21:43;30.62;53.88
77523;SHT31;66637;-29.628;-49.938;2023-03-18T15:24:19;30.51;53.95
77523;SHT31;66637;-29.628;-49.938;2023-03-18T15:27:03;30.65;55.12
77523;SHT31;66637;-29.628;-49.938;2023-03-18T15:29:46;30.68;54.94
77523;SHT31;66637;-29.628;-49.938;2023-03-18T15:32:25;30.96;55.64
77523;SHT31;66637;-29.628;-49.938;2023-03-18T15:35:22;30.79;55.22
77523;SHT31;66637;-29.628;-49.938;2023-03-18T15:38:05;30.47;57.18
77523;SHT31;66637;-29.628;-49.938;2023-03-18T15:43:40;30.69;55.34
77523;SHT31;66637;-29.628;-49.938;2023-03-18T15:48:54;30.48;55.48
77523;SHT31;66637;-29.628;-49.938;2023-03-18T15:51:29;30.24;56.38
77523;SHT31;66637;-29.628;-49.938;2023-03-18T15:54:14;30.38;55.83
77523;SHT31;66637;-29.628;-49.938;2023-03-18T15:56:46;30.41;56.45
77523;SHT31;66637;-29.628;-49.938;2023-03-18T15:59:30;30.14;57.09
77523;SHT31;66637;-29.628;-49.938;2023-03-18T16:02:01;30.35;56.32
77523;SHT31;66637;-29.628;-49.938;2023-03-18T16:04:35;30.29;55.90
77523;SHT31;66637;-29.628;-49.938;2023-03-18T16:07:17;30.42;55.43
77523;SHT31;66637;-29.628;-49.938;2023-03-18T16:09:51;30.47;55.30
77523;SHT31;66637;-29.628;-49.938;2023-03-18T16:12:24;30.76;54.91
77523;SHT31;66637;-29.628;-49.938;2023-03-18T16:14:56;30.64;54.55
77523;SHT31;66637;-29.628;-49.938;2023-03-18T16:17:27;30.61;54.73
77523;SHT31;66637;-29.628;-49.938;2023-03-18T16:20:00;30.62;54.47
77523;SHT31;66637;-29.628;-49.938;2023-03-18T16:22:33;30.74;54.44
77523;SHT31;66637;-29.628;-49.938;2023-03-18T16:25:05;30.45;54.49
77523;SHT31;66637;-29.628;-49.938;2023-03-18T16:27:39;30.61;54.71
77523;SHT31;66637;-29.628;-49.938;2023-03-18T16:30:17;30.69;54.75
77523;SHT31;66637;-29.628;-49.938;2023-03-18T16:32:48;30.37;54.28
77523;SHT31;66637;-29.628;-49.938;2023-03-18T16:35:21;30.38;54.64
77523;SHT31;66637;-29.628;-49.938;2023-03-18T16:37:54;30.42;54.34
77523;SHT31;66637;-29.628;-49.938;2023-03-18T16:40:28;30.27;54.11
77523;SHT31;66637;-29.628;-49.938;2023-03-18T16:43:00;30.28;54.22
77523;SHT31;66637;-29.628;-49.938;2023-03-18T16:45:32;30.20;54.68
77523;SHT31;66637;-29.628;-49.938;2023-03-18T16:48:05;30.37;54.96
77523;SHT31;66637;-29.628;-49.938;2023-03-18T16:50:37;30.11;55.74
77523;SHT31;66637;-29.628;-49.938;2023-03-18T16:53:24;30.28;55.53
77523;SHT31;66637;-29.628;-49.938;2023-03-18T16:56:15;30.42;55.58
77523;SHT31;66637;-29.628;-49.938;2023-03-18T16:58:48;30.17;55.88
77523;SHT31;66637;-29.628;-49.938;2023-03-18T17:01:20;30.27;56.62
77523;SHT31;66637;-29.628;-49.938;2023-03-18T17:03:53;30.21;56.58
77523;SHT31;66637;-29.628;-49.938;2023-03-18T17:06:24;30.23;55.48
77523;SHT31;66637;-29.628;-49.938;2023-03-18T17:08:55;29.91;56.39
77523;SHT31;66637;-29.628;-49.938;2023-03-18T17:11:26;30.01;55.34
77523;SHT31;66637;-29.628;-49.938;2023-03-18T17:13:58;29.86;57.08
77523;SHT31;66637;-29.628;-49.938;2023-03-18T17:16:29;29.91;56.32
77523;SHT31;66637;-29.628;-49.938;2023-03-18T17:19:00;29.70;56.28
77523;SHT31;66637;-29.628;-49.938;2023-03-18T17:21:31;29.74;55.95
77523;SHT31;66637;-29.628;-49.938;2023-03-18T17:24:02;29.81;57.68
77523;SHT31;66637;-29.628;-49.938;2023-03-18T17:26:34;30.03;56.14
77523;SHT31;66637;-29.628;-49.938;2023-03-18T17:29:05;30.07;56.43
77523;SHT31;66637;-29.628;-49.938;2023-03-18T17:31:39;29.93;56.55
77523;SHT31;66637;-29.628;-49.938;2023-03-18T17:34:12;29.67;57.53
77523;SHT31;66637;-29.628;-49.938;2023-03-18T17:36:46;29.97;57.40
77523;SHT31;66637;-29.628;-49.938;2023-03-18T17:39:16;30.11;57.08
77523;SHT31;66637;-29.628;-49.938;2023-03-18T17:41:48;30.17;56.65
77523;SHT31;66637;-29.628;-49.938;2023-03-18T17:44:21;30.13;57.39
77523;SHT31;66637;-29.628;-49.938;2023-03-18T17:46:57;30.16;57.64